createdAt,value
2017-07-24T00:00:29.902Z,0
2017-07-24T00:01:39.855Z,0
2017-07-24T00:02:49.806Z,0
2017-07-24T00:04:00.076Z,0
2017-07-24T00:05:10.350Z,0
2017-07-24T00:06:19.991Z,0
2017-07-24T00:07:30.261Z,0
2017-07-24T00:08:40.532Z,0
2017-07-24T00:09:50.485Z,0
2017-07-24T00:11:00.757Z,0
2017-07-24T00:12:11.030Z,0
2017-07-24T00:13:21.317Z,0
2017-07-24T00:14:31.583Z,0
2017-07-24T00:15:41.854Z,0
2017-07-24T00:16:51.808Z,0
2017-07-24T00:18:01.767Z,0
2017-07-24T00:19:12.040Z,0
2017-07-24T00:20:21.996Z,0
2017-07-24T00:21:32.267Z,0
2017-07-24T00:22:42.531Z,0
2017-07-24T00:23:52.178Z,0
2017-07-24T00:25:02.137Z,0
2017-07-24T00:26:12.406Z,0
2017-07-24T00:27:22.368Z,0
2017-07-24T00:28:32.645Z,0
2017-07-24T00:29:42.916Z,0
2017-07-24T00:30:53.184Z,0
2017-07-24T00:32:03.448Z,0
2017-07-24T00:33:13.094Z,0
2017-07-24T00:34:23.052Z,0
2017-07-24T00:35:33.321Z,0
2017-07-24T00:36:43.612Z,0
2017-07-24T00:37:53.590Z,0
2017-07-24T00:39:03.544Z,0
2017-07-24T00:40:13.816Z,0
2017-07-24T00:41:23.773Z,0
2017-07-24T00:42:34.046Z,0
2017-07-24T00:43:44.328Z,0
2017-07-24T00:44:54.602Z,0
2017-07-24T00:46:04.870Z,0
2017-07-24T00:47:15.136Z,0
2017-07-24T00:48:25.405Z,0
2017-07-24T00:49:35.707Z,0
2017-07-24T00:50:45.983Z,0
2017-07-24T00:51:56.259Z,0
2017-07-24T00:53:06.226Z,0
2017-07-24T00:54:16.181Z,0
2017-07-24T00:55:26.451Z,0
2017-07-24T00:56:36.728Z,0
2017-07-24T00:57:46.997Z,0
2017-07-24T00:58:57.271Z,0
2017-07-24T01:00:07.560Z,0
2017-07-24T01:01:17.829Z,0
2017-07-24T01:02:28.101Z,0
2017-07-24T01:03:38.058Z,0
2017-07-24T01:04:48.014Z,0
2017-07-24T01:05:57.968Z,0
2017-07-24T01:07:08.249Z,0
2017-07-24T01:08:18.203Z,0
2017-07-24T01:09:28.475Z,0
2017-07-24T01:10:38.753Z,0
2017-07-24T01:11:49.020Z,0
2017-07-24T01:12:58.974Z,0
2017-07-24T01:14:09.245Z,0
2017-07-24T01:15:19.534Z,0
2017-07-24T01:16:29.507Z,0
2017-07-24T01:17:39.772Z,0
2017-07-24T01:18:50.034Z,0
2017-07-24T01:19:59.672Z,0
2017-07-24T01:21:09.945Z,0
2017-07-24T01:22:20.219Z,0
2017-07-24T01:23:30.178Z,0
2017-07-24T01:24:40.445Z,0
2017-07-24T01:25:50.712Z,0
2017-07-24T01:27:00.662Z,0
2017-07-24T01:28:10.932Z,0
2017-07-24T01:29:20.886Z,0
2017-07-24T01:30:31.160Z,0
2017-07-24T01:31:41.427Z,0
2017-07-24T01:32:51.381Z,0
2017-07-24T01:34:01.657Z,0
2017-07-24T01:35:11.926Z,0
2017-07-24T01:36:22.192Z,0
2017-07-24T01:37:32.459Z,0
2017-07-24T01:38:42.419Z,0
2017-07-24T01:39:52.374Z,0
2017-07-24T01:41:02.649Z,0
2017-07-24T01:42:12.605Z,0
2017-07-24T01:43:22.562Z,0
2017-07-24T01:44:32.526Z,0
2017-07-24T01:45:42.798Z,0
2017-07-24T01:46:53.068Z,0
2017-07-24T01:48:03.337Z,0
2017-07-24T01:49:13.291Z,0
2017-07-24T01:50:23.244Z,0
2017-07-24T01:51:33.517Z,4
2017-07-24T01:52:43.809Z,4
2017-07-24T01:53:53.450Z,4
2017-07-24T01:55:03.721Z,4
2017-07-24T01:56:13.678Z,0
2017-07-24T01:57:23.945Z,0
2017-07-24T01:58:33.897Z,4
2017-07-24T01:59:44.165Z,4
2017-07-24T02:00:54.126Z,4
2017-07-24T02:02:04.403Z,4
2017-07-24T02:03:14.671Z,8
2017-07-24T02:04:24.936Z,8
2017-07-24T02:05:35.203Z,4
2017-07-24T02:06:44.860Z,8
2017-07-24T02:07:55.137Z,8
2017-07-24T02:09:05.414Z,8
2017-07-24T02:10:15.366Z,12
2017-07-24T02:11:25.632Z,12
2017-07-24T02:12:35.692Z,12
2017-07-24T02:13:45.958Z,16
2017-07-24T02:14:56.226Z,20
2017-07-24T02:16:06.501Z,16
2017-07-24T02:17:16.775Z,20
2017-07-24T02:18:27.040Z,20
2017-07-24T02:19:37.308Z,20
2017-07-24T02:20:47.578Z,20
2017-07-24T02:21:57.851Z,20
2017-07-24T02:23:08.121Z,20
2017-07-24T02:24:18.390Z,28
2017-07-24T02:25:28.660Z,24
2017-07-24T02:26:38.617Z,28
2017-07-24T02:27:48.881Z,36
2017-07-24T02:28:59.147Z,44
2017-07-24T02:30:09.418Z,44
2017-07-24T02:31:19.700Z,48
2017-07-24T02:32:30.220Z,56
2017-07-24T02:33:40.495Z,52
2017-07-24T02:34:50.771Z,64
2017-07-24T02:36:01.039Z,64
2017-07-24T02:37:10.688Z,84
2017-07-24T02:38:20.962Z,76
2017-07-24T02:39:31.229Z,100
2017-07-24T02:40:41.498Z,112
2017-07-24T02:41:51.772Z,116
2017-07-24T02:43:02.057Z,124
2017-07-24T02:44:12.021Z,128
2017-07-24T02:45:21.981Z,136
2017-07-24T02:46:32.256Z,148
2017-07-24T02:47:42.535Z,156
2017-07-24T02:48:52.802Z,160
2017-07-24T02:50:03.076Z,180
2017-07-24T02:51:13.346Z,192
2017-07-24T02:52:23.620Z,196
2017-07-24T02:53:33.577Z,192
2017-07-24T02:54:43.845Z,188
2017-07-24T02:55:53.798Z,180
2017-07-24T02:57:04.064Z,180
2017-07-24T02:58:14.026Z,204
2017-07-24T02:59:24.297Z,212
2017-07-24T03:00:34.564Z,240
2017-07-24T03:01:44.827Z,252
2017-07-24T03:02:55.094Z,252
2017-07-24T03:04:05.047Z,256
2017-07-24T03:05:15.001Z,236
2017-07-24T03:06:25.273Z,252
2017-07-24T03:07:35.221Z,252
2017-07-24T03:08:45.492Z,244
2017-07-24T03:09:55.448Z,232
2017-07-24T03:11:05.726Z,236
2017-07-24T03:12:15.682Z,252
2017-07-24T03:13:25.952Z,272
2017-07-24T03:14:35.904Z,260
2017-07-24T03:15:46.181Z,252
2017-07-24T03:16:56.161Z,256
2017-07-24T03:18:06.434Z,252
2017-07-24T03:19:16.392Z,272
2017-07-24T03:20:26.670Z,304
2017-07-24T03:21:36.942Z,312
2017-07-24T03:22:47.211Z,304
2017-07-24T03:23:57.478Z,304
2017-07-24T03:25:07.436Z,340
2017-07-24T03:26:17.710Z,372
2017-07-24T03:27:27.980Z,372
2017-07-24T03:28:38.246Z,372
2017-07-24T03:29:48.517Z,376
2017-07-24T03:30:58.157Z,368
2017-07-24T03:32:08.435Z,360
2017-07-24T03:33:18.705Z,368
2017-07-24T03:34:28.970Z,360
2017-07-24T03:35:39.235Z,328
2017-07-24T03:36:49.504Z,308
2017-07-24T03:37:59.778Z,300
2017-07-24T03:39:09.745Z,300
2017-07-24T03:40:20.016Z,284
2017-07-24T03:41:30.282Z,264
2017-07-24T03:42:40.553Z,264
2017-07-24T03:43:50.821Z,268
2017-07-24T03:45:01.096Z,264
2017-07-24T03:46:11.050Z,268
2017-07-24T03:47:21.321Z,296
2017-07-24T03:48:31.591Z,332
2017-07-24T03:49:41.859Z,356
2017-07-24T03:50:51.824Z,396
2017-07-24T03:52:02.094Z,460
2017-07-24T03:53:12.362Z,524
2017-07-24T03:54:22.632Z,596
2017-07-24T03:55:32.584Z,636
2017-07-24T03:56:42.540Z,684
2017-07-24T03:57:52.803Z,744
2017-07-24T03:59:03.072Z,808
2017-07-24T04:00:13.341Z,848
2017-07-24T04:01:23.321Z,864
2017-07-24T04:02:33.277Z,848
2017-07-24T04:03:43.538Z,840
2017-07-24T04:04:53.490Z,832
2017-07-24T04:06:03.758Z,852
2017-07-24T04:07:14.027Z,864
2017-07-24T04:08:24.315Z,888
2017-07-24T04:09:34.291Z,896
2017-07-24T04:10:44.569Z,924
2017-07-24T04:11:54.540Z,948
2017-07-24T04:13:04.810Z,956
2017-07-24T04:14:15.085Z,924
2017-07-24T04:15:25.356Z,904
2017-07-24T04:16:35.624Z,944
2017-07-24T04:17:45.572Z,1016
2017-07-24T04:18:55.522Z,1048
2017-07-24T04:20:05.793Z,1084
2017-07-24T04:21:16.062Z,1160
2017-07-24T04:22:26.341Z,1272
2017-07-24T04:23:36.303Z,1364
2017-07-24T04:24:46.573Z,1428
2017-07-24T04:25:56.526Z,1488
2017-07-24T04:27:06.801Z,1508
2017-07-24T04:28:17.112Z,1516
2017-07-24T04:29:27.379Z,1576
2017-07-24T04:30:37.644Z,1672
2017-07-24T04:31:47.909Z,1768
2017-07-24T04:32:57.869Z,1828
2017-07-24T04:34:07.514Z,1892
2017-07-24T04:35:17.782Z,1952
2017-07-24T04:36:28.054Z,1996
2017-07-24T04:37:38.320Z,2032
2017-07-24T04:38:48.592Z,2052
2017-07-24T04:39:58.864Z,2064
2017-07-24T04:41:09.133Z,2076
2017-07-24T04:42:19.084Z,2104
2017-07-24T04:43:29.040Z,2104
2017-07-24T04:44:38.997Z,2068
2017-07-24T04:45:48.651Z,2000
2017-07-24T04:46:58.926Z,1912
2017-07-24T04:48:09.202Z,1808
2017-07-24T04:49:19.162Z,1712
2017-07-24T04:50:29.441Z,1620
2017-07-24T04:51:39.713Z,1504
2017-07-24T04:52:49.981Z,1392
2017-07-24T04:54:00.251Z,1288
2017-07-24T04:55:10.539Z,1188
2017-07-24T04:56:20.492Z,1088
2017-07-24T04:57:30.443Z,988
2017-07-24T04:58:40.709Z,908
2017-07-24T04:59:50.978Z,872
2017-07-24T05:01:01.253Z,852
2017-07-24T05:02:11.202Z,824
2017-07-24T05:03:21.474Z,784
2017-07-24T05:04:31.785Z,780
2017-07-24T05:05:42.061Z,792
2017-07-24T05:06:51.700Z,820
2017-07-24T05:08:01.971Z,848
2017-07-24T05:09:12.239Z,888
2017-07-24T05:10:22.536Z,920
2017-07-24T05:11:32.806Z,944
2017-07-24T05:12:42.442Z,944
2017-07-24T05:13:52.395Z,952
2017-07-24T05:15:02.670Z,980
2017-07-24T05:16:12.645Z,1036
2017-07-24T05:17:22.913Z,1092
2017-07-24T05:18:32.868Z,1140
2017-07-24T05:19:43.139Z,1180
2017-07-24T05:20:53.420Z,1212
2017-07-24T05:22:03.688Z,1252
2017-07-24T05:23:13.960Z,1296
2017-07-24T05:24:24.229Z,1360
2017-07-24T05:25:34.501Z,1420
2017-07-24T05:26:44.774Z,1464
2017-07-24T05:27:55.037Z,1512
2017-07-24T05:29:05.306Z,1564
2017-07-24T05:30:15.576Z,1628
2017-07-24T05:31:25.882Z,1688
2017-07-24T05:32:36.153Z,1728
2017-07-24T05:33:46.103Z,1732
2017-07-24T05:34:56.051Z,1712
2017-07-24T05:36:06.321Z,1664
2017-07-24T05:37:16.590Z,1680
2017-07-24T05:38:26.855Z,1788
2017-07-24T05:39:37.127Z,1872
2017-07-24T05:40:47.406Z,1900
2017-07-24T05:41:57.674Z,1908
2017-07-24T05:43:07.625Z,1908
2017-07-24T05:44:17.582Z,1888
2017-07-24T05:45:27.853Z,1848
2017-07-24T05:46:38.117Z,1808
2017-07-24T05:47:48.387Z,1772
2017-07-24T05:48:58.343Z,1776
2017-07-24T05:50:08.618Z,1820
2017-07-24T05:51:18.576Z,1888
2017-07-24T05:52:28.845Z,1976
2017-07-24T05:53:39.112Z,2052
2017-07-24T05:54:49.382Z,2104
2017-07-24T05:55:59.655Z,2112
2017-07-24T05:57:09.926Z,2084
2017-07-24T05:58:20.201Z,2028
2017-07-24T05:59:30.156Z,1952
2017-07-24T06:00:40.424Z,1880
2017-07-24T06:01:50.700Z,1880
2017-07-24T06:03:00.969Z,1944
2017-07-24T06:04:10.920Z,2024
2017-07-24T06:05:21.192Z,2080
2017-07-24T06:06:31.459Z,2088
2017-07-24T06:07:41.417Z,2068
2017-07-24T06:08:51.381Z,2036
2017-07-24T06:10:01.655Z,2008
2017-07-24T06:11:11.610Z,2004
2017-07-24T06:12:21.883Z,2004
2017-07-24T06:13:32.154Z,2016
2017-07-24T06:14:42.108Z,2008
2017-07-24T06:15:52.381Z,2016
2017-07-24T06:17:02.648Z,2028
2017-07-24T06:18:12.918Z,2044
2017-07-24T06:19:23.186Z,2072
2017-07-24T06:20:33.453Z,2076
2017-07-24T06:21:43.728Z,2072
2017-07-24T06:22:53.715Z,2040
2017-07-24T06:24:03.685Z,1996
2017-07-24T06:25:13.640Z,1976
2017-07-24T06:26:23.906Z,1968
2017-07-24T06:27:33.861Z,1980
2017-07-24T06:28:44.131Z,2008
2017-07-24T06:29:53.454Z,2052
2017-07-24T06:31:03.735Z,2088
2017-07-24T06:32:13.846Z,2112
2017-07-24T06:33:24.118Z,2124
2017-07-24T06:34:34.083Z,2140
2017-07-24T06:35:44.352Z,2188
2017-07-24T06:36:54.306Z,2268
2017-07-24T06:38:04.258Z,2392
2017-07-24T06:39:14.213Z,2548
2017-07-24T06:40:23.853Z,2708
2017-07-24T06:41:34.128Z,2872
2017-07-24T06:42:44.400Z,3032
2017-07-24T06:43:54.356Z,3204
2017-07-24T06:45:04.314Z,3388
2017-07-24T06:46:14.269Z,3544
2017-07-24T06:47:24.539Z,3696
2017-07-24T06:48:34.502Z,3844
2017-07-24T06:49:44.785Z,3976
2017-07-24T06:50:55.051Z,4084
2017-07-24T06:52:05.319Z,4208
2017-07-24T06:53:15.285Z,4352
2017-07-24T06:54:25.557Z,4520
2017-07-24T06:55:35.856Z,4644
2017-07-24T06:56:46.127Z,4764
2017-07-24T06:57:56.402Z,4876
2017-07-24T06:59:06.672Z,4988
2017-07-24T07:00:16.621Z,5120
2017-07-24T07:01:26.896Z,5228
2017-07-24T07:02:36.233Z,5312
2017-07-24T07:03:46.508Z,5376
2017-07-24T07:04:56.776Z,5440
2017-07-24T07:06:07.046Z,5528
2017-07-24T07:07:17.006Z,5636
2017-07-24T07:08:27.280Z,5728
2017-07-24T07:09:36.602Z,5816
2017-07-24T07:10:46.872Z,5896
2017-07-24T07:11:58.986Z,5980
2017-07-24T07:13:09.280Z,6104
2017-07-24T07:14:19.258Z,6300
2017-07-24T07:15:29.534Z,6624
2017-07-24T07:16:39.810Z,7088
2017-07-24T07:17:50.076Z,7588
2017-07-24T07:19:00.042Z,8008
2017-07-24T07:20:10.004Z,8300
2017-07-24T07:21:19.977Z,8532
2017-07-24T07:22:30.256Z,8708
2017-07-24T07:23:39.897Z,8860
2017-07-24T07:24:50.165Z,9012
2017-07-24T07:26:00.122Z,9096
2017-07-24T07:27:10.079Z,9112
2017-07-24T07:28:19.723Z,9136
2017-07-24T07:29:29.996Z,9308
2017-07-24T07:30:39.955Z,9584
2017-07-24T07:31:50.223Z,9836
2017-07-24T07:33:00.496Z,9972
2017-07-24T07:34:10.187Z,10036
2017-07-24T07:35:20.473Z,10108
2017-07-24T07:36:30.436Z,10176
2017-07-24T07:37:40.406Z,10228
2017-07-24T07:38:50.361Z,10260
2017-07-24T07:40:00.336Z,10300
2017-07-24T07:41:10.606Z,10380
2017-07-24T07:42:20.569Z,10536
2017-07-24T07:43:30.836Z,10696
2017-07-24T07:44:41.104Z,10864
2017-07-24T07:45:51.059Z,11016
2017-07-24T07:47:01.013Z,11216
2017-07-24T07:48:11.291Z,11460
2017-07-24T07:49:21.557Z,11712
2017-07-24T07:50:31.202Z,11912
2017-07-24T07:51:41.167Z,12032
2017-07-24T07:52:51.455Z,12088
2017-07-24T07:54:01.725Z,12116
2017-07-24T07:55:11.678Z,12132
2017-07-24T07:56:21.636Z,12188
2017-07-24T07:57:31.598Z,12256
2017-07-24T07:58:41.865Z,12296
2017-07-24T07:59:52.145Z,12272
2017-07-24T08:01:02.448Z,12332
2017-07-24T08:02:12.769Z,12324
2017-07-24T08:03:22.413Z,12260
2017-07-24T08:04:32.063Z,12232
2017-07-24T08:05:42.344Z,12344
2017-07-24T08:06:52.614Z,12508
2017-07-24T08:08:02.888Z,12548
2017-07-24T08:09:13.163Z,12512
2017-07-24T08:10:23.433Z,12436
2017-07-24T08:11:33.706Z,12392
2017-07-24T08:12:43.681Z,12440
2017-07-24T08:13:53.953Z,12592
2017-07-24T08:15:04.229Z,12340
2017-07-24T08:16:14.196Z,11792
2017-07-24T08:17:23.842Z,11540
2017-07-24T08:18:34.117Z,11300
2017-07-24T08:19:44.100Z,11000
2017-07-24T08:20:54.059Z,10728
2017-07-24T08:22:04.335Z,10352
2017-07-24T08:23:14.624Z,9964
2017-07-24T08:24:24.928Z,9756
2017-07-24T08:25:34.891Z,9768
2017-07-24T08:26:45.165Z,9744
2017-07-24T08:27:55.133Z,9580
2017-07-24T08:29:05.399Z,9176
2017-07-24T08:30:15.356Z,8728
2017-07-24T08:31:25.628Z,8388
2017-07-24T08:32:35.593Z,8152
2017-07-24T08:33:45.554Z,8088
2017-07-24T08:34:55.827Z,8084
2017-07-24T08:36:06.103Z,8032
2017-07-24T08:37:16.062Z,7848
2017-07-24T08:38:26.333Z,7744
2017-07-24T08:39:36.304Z,7740
2017-07-24T08:40:46.258Z,7800
2017-07-24T08:41:56.530Z,7940
2017-07-24T08:43:06.806Z,8032
2017-07-24T08:44:17.072Z,8136
2017-07-24T08:45:27.349Z,8284
2017-07-24T08:46:36.996Z,8352
2017-07-24T08:47:47.269Z,8400
2017-07-24T08:48:57.231Z,8516
2017-07-24T08:50:07.193Z,8612
2017-07-24T08:51:17.466Z,8648
2017-07-24T08:52:27.427Z,8712
2017-07-24T08:53:37.712Z,8748
2017-07-24T08:54:47.983Z,8880
2017-07-24T08:55:57.943Z,9004
2017-07-24T08:57:08.217Z,9340
2017-07-24T08:58:18.495Z,9756
2017-07-24T08:59:28.138Z,10096
2017-07-24T09:00:38.103Z,10308
2017-07-24T09:01:48.064Z,10576
2017-07-24T09:02:58.332Z,10824
2017-07-24T09:04:08.297Z,11016
2017-07-24T09:05:18.572Z,11188
2017-07-24T09:06:28.843Z,11460
2017-07-24T09:07:38.804Z,11660
2017-07-24T09:08:48.762Z,11736
2017-07-24T09:09:58.726Z,11880
2017-07-24T09:11:08.679Z,12144
2017-07-24T09:12:18.330Z,12444
2017-07-24T09:13:28.602Z,12704
2017-07-24T09:14:38.244Z,12916
2017-07-24T09:15:48.534Z,13128
2017-07-24T09:16:58.804Z,13364
2017-07-24T09:18:09.076Z,13592
2017-07-24T09:19:18.715Z,13792
2017-07-24T09:20:28.674Z,13996
2017-07-24T09:21:38.952Z,14088
2017-07-24T09:22:49.223Z,14092
2017-07-24T09:23:59.185Z,13960
2017-07-24T09:25:09.454Z,13780
2017-07-24T09:26:19.422Z,13480
2017-07-24T09:27:29.708Z,13272
2017-07-24T09:28:39.984Z,13116
2017-07-24T09:29:50.267Z,13028
2017-07-24T09:31:00.537Z,12896
2017-07-24T09:32:10.502Z,12672
2017-07-24T09:33:19.520Z,12416
2017-07-24T09:34:29.795Z,12012
2017-07-24T09:35:40.075Z,11732
2017-07-24T09:36:49.717Z,11724
2017-07-24T09:37:59.995Z,11896
2017-07-24T09:39:09.956Z,12196
2017-07-24T09:40:19.916Z,12556
2017-07-24T09:41:30.193Z,12840
2017-07-24T09:42:40.469Z,12984
2017-07-24T09:43:50.742Z,13040
2017-07-24T09:45:00.387Z,13120
2017-07-24T09:46:10.033Z,13220
2017-07-24T09:47:19.999Z,13428
2017-07-24T09:48:30.282Z,13556
2017-07-24T09:49:40.561Z,13596
2017-07-24T09:50:50.834Z,13492
2017-07-24T09:52:00.792Z,13280
2017-07-24T09:53:10.771Z,13008
2017-07-24T09:54:21.039Z,12796
2017-07-24T09:55:31.307Z,12628
2017-07-24T09:56:41.270Z,12380
2017-07-24T09:57:51.542Z,12012
2017-07-24T09:59:01.822Z,11708
2017-07-24T10:00:12.092Z,11596
2017-07-24T10:01:22.059Z,11728
2017-07-24T10:02:32.334Z,11880
2017-07-24T10:03:42.612Z,11848
2017-07-24T10:04:52.884Z,11636
2017-07-24T10:06:03.165Z,11420
2017-07-24T10:07:12.808Z,11400
2017-07-24T10:08:22.772Z,11492
2017-07-24T10:09:32.421Z,11564
2017-07-24T10:10:42.701Z,11556
2017-07-24T10:11:52.977Z,11436
2017-07-24T10:13:03.252Z,11260
2017-07-24T10:14:13.524Z,11088
2017-07-24T10:15:23.486Z,10900
2017-07-24T10:16:33.449Z,10808
2017-07-24T10:17:43.723Z,10892
2017-07-24T10:18:54.006Z,11168
2017-07-24T10:20:04.277Z,11536
2017-07-24T10:21:14.554Z,11764
2017-07-24T10:22:24.527Z,11992
2017-07-24T10:23:34.805Z,12280
2017-07-24T10:24:44.773Z,12612
2017-07-24T10:25:55.044Z,12836
2017-07-24T10:27:05.322Z,12904
2017-07-24T10:28:15.598Z,12808
2017-07-24T10:29:25.554Z,12648
2017-07-24T10:30:35.526Z,12576
2017-07-24T10:31:45.797Z,12684
2017-07-24T10:32:55.759Z,12992
2017-07-24T10:34:06.038Z,13540
2017-07-24T10:35:16.322Z,14104
2017-07-24T10:36:26.600Z,14512
2017-07-24T10:37:36.558Z,14808
2017-07-24T10:38:46.866Z,14888
2017-07-24T10:39:57.143Z,14772
2017-07-24T10:41:07.422Z,14512
2017-07-24T10:42:17.702Z,14304
2017-07-24T10:43:27.664Z,14248
2017-07-24T10:44:37.941Z,14252
2017-07-24T10:45:48.214Z,14196
2017-07-24T10:46:58.487Z,14088
2017-07-24T10:48:08.447Z,14000
2017-07-24T10:49:18.728Z,13848
2017-07-24T10:50:28.693Z,13468
2017-07-24T10:51:38.968Z,12992
2017-07-24T10:52:48.936Z,12612
2017-07-24T10:53:59.211Z,12364
2017-07-24T10:55:09.491Z,12340
2017-07-24T10:56:19.767Z,12480
2017-07-24T10:57:29.726Z,12764
2017-07-24T10:58:40.002Z,13036
2017-07-24T10:59:52.280Z,13216
2017-07-24T11:01:02.240Z,13160
2017-07-24T11:02:12.208Z,13048
2017-07-24T11:03:21.848Z,13056
2017-07-24T11:04:31.815Z,13120
2017-07-24T11:05:41.790Z,12956
2017-07-24T11:06:51.749Z,12632
2017-07-24T11:08:01.722Z,12364
2017-07-24T11:09:11.689Z,12260
2017-07-24T11:10:21.652Z,12404
2017-07-24T11:11:31.927Z,12816
2017-07-24T11:12:42.204Z,13356
2017-07-24T11:13:52.474Z,13952
2017-07-24T11:15:02.753Z,14596
2017-07-24T11:16:12.718Z,15288
2017-07-24T11:17:22.683Z,16032
2017-07-24T11:18:32.958Z,16544
2017-07-24T11:19:43.236Z,16960
2017-07-24T11:20:53.203Z,17184
2017-07-24T11:22:03.484Z,17280
2017-07-24T11:23:13.759Z,17088
2017-07-24T11:24:24.029Z,16960
2017-07-24T11:25:34.002Z,16800
2017-07-24T11:26:44.275Z,16768
2017-07-24T11:27:54.237Z,17056
2017-07-24T11:29:04.510Z,17952
2017-07-24T11:30:14.790Z,18688
2017-07-24T11:31:25.073Z,18944
2017-07-24T11:32:35.039Z,18592
2017-07-24T11:33:45.311Z,18304
2017-07-24T11:34:55.268Z,18240
2017-07-24T11:36:05.551Z,18144
2017-07-24T11:37:15.831Z,18240
2017-07-24T11:38:26.104Z,18176
2017-07-24T11:39:36.376Z,18144
2017-07-24T11:40:46.016Z,18144
2017-07-24T11:41:55.976Z,18176
2017-07-24T11:43:06.253Z,18272
2017-07-24T11:44:16.213Z,17376
2017-07-24T11:45:26.503Z,17152
2017-07-24T11:46:36.782Z,17504
2017-07-24T11:47:46.431Z,17824
2017-07-24T11:48:56.712Z,19712
2017-07-24T11:50:06.993Z,20416
2017-07-24T11:51:17.283Z,22656
2017-07-24T11:52:27.236Z,24864
2017-07-24T11:53:37.520Z,23584
2017-07-24T11:54:47.478Z,23072
2017-07-24T11:55:57.754Z,24160
2017-07-24T11:57:07.717Z,25376
2017-07-24T11:58:17.994Z,24864
2017-07-24T11:59:27.957Z,23040
2017-07-24T12:00:38.241Z,21440
2017-07-24T12:01:48.514Z,20064
2017-07-24T12:02:58.786Z,19040
2017-07-24T12:04:08.756Z,18912
2017-07-24T12:05:18.760Z,18048
2017-07-24T12:06:28.724Z,17760
2017-07-24T12:07:39.003Z,17696
2017-07-24T12:08:48.967Z,17888
2017-07-24T12:09:58.933Z,17888
2017-07-24T12:11:09.231Z,17696
2017-07-24T12:12:19.191Z,17472
2017-07-24T12:13:29.468Z,17120
2017-07-24T12:14:39.763Z,16640
2017-07-24T12:15:49.411Z,15968
2017-07-24T12:16:59.060Z,15176
2017-07-24T12:18:09.343Z,14752
2017-07-24T12:19:19.311Z,14968
2017-07-24T12:20:29.274Z,15580
2017-07-24T12:21:39.550Z,16640
2017-07-24T12:22:49.831Z,18400
2017-07-24T12:24:00.118Z,20832
2017-07-24T12:25:10.397Z,23264
2017-07-24T12:26:20.672Z,26240
2017-07-24T12:27:31.012Z,28480
2017-07-24T12:28:40.980Z,33056
2017-07-24T12:29:50.942Z,36736
2017-07-24T12:31:01.241Z,41056
2017-07-24T12:32:11.205Z,53088
2017-07-24T12:33:21.491Z,55488
2017-07-24T12:34:31.765Z,71104
2017-07-24T12:35:42.043Z,81152
2017-07-24T12:36:52.325Z,74656
2017-07-24T12:38:02.603Z,66240
2017-07-24T12:39:12.570Z,82016
2017-07-24T12:40:22.224Z,87360
2017-07-24T12:41:31.890Z,74304
2017-07-24T12:42:42.175Z,73152
2017-07-24T12:43:52.464Z,71424
2017-07-24T12:45:02.449Z,90400
2017-07-24T12:46:12.733Z,69920
2017-07-24T12:47:22.695Z,75840
2017-07-24T12:48:32.663Z,77728
2017-07-24T12:49:42.942Z,65792
2017-07-24T12:50:52.910Z,60864
2017-07-24T12:52:03.195Z,87968
2017-07-24T12:53:13.470Z,78528
2017-07-24T12:54:23.752Z,47808
2017-07-24T12:55:34.039Z,50976
2017-07-24T12:56:44.320Z,47296
2017-07-24T12:57:54.610Z,43200
2017-07-24T12:59:04.903Z,60000
2017-07-24T13:00:14.878Z,42720
2017-07-24T13:01:24.851Z,45632
2017-07-24T13:02:35.134Z,49024
2017-07-24T13:03:45.120Z,65728
2017-07-24T13:04:55.426Z,40480
2017-07-24T13:06:05.714Z,44960
2017-07-24T13:07:16.001Z,49760
2017-07-24T13:08:25.978Z,54688
2017-07-24T13:09:35.641Z,35392
2017-07-24T13:10:45.932Z,65504
2017-07-24T13:11:55.904Z,41120
2017-07-24T13:13:05.561Z,34624
2017-07-24T13:14:15.849Z,35200
2017-07-24T13:15:26.131Z,36064
2017-07-24T13:16:36.415Z,43904
2017-07-24T13:17:46.379Z,37760
2017-07-24T13:18:56.658Z,47296
2017-07-24T13:20:06.951Z,51040
2017-07-24T13:21:17.235Z,44576
2017-07-24T13:22:27.520Z,41760
2017-07-24T13:23:37.181Z,44000
2017-07-24T13:24:47.466Z,45984
2017-07-24T13:25:57.752Z,42592
2017-07-24T13:27:08.041Z,43968
2017-07-24T13:28:18.324Z,65760
2017-07-24T13:29:28.296Z,68352
2017-07-24T13:30:38.269Z,47936
2017-07-24T13:31:48.553Z,46464
2017-07-24T13:32:58.526Z,50784
2017-07-24T13:34:08.808Z,57152
2017-07-24T13:35:18.467Z,72704
2017-07-24T13:36:28.144Z,85632
2017-07-24T13:37:38.433Z,75360
2017-07-24T13:38:48.717Z,50816
2017-07-24T13:39:59.003Z,62528
2017-07-24T13:41:08.967Z,63968
2017-07-24T13:42:18.950Z,80960
2017-07-24T13:43:29.231Z,85600
2017-07-24T13:44:39.509Z,70944
2017-07-24T13:45:49.483Z,61952
2017-07-24T13:46:59.765Z,45312
2017-07-24T13:48:09.743Z,56992
2017-07-24T13:49:20.038Z,45152
2017-07-24T13:50:30.322Z,58496
2017-07-24T13:51:40.285Z,37248
2017-07-24T13:52:50.278Z,36736
2017-07-24T13:54:00.564Z,38784
2017-07-24T13:55:10.847Z,42656
2017-07-24T13:56:21.137Z,50752
2017-07-24T13:57:31.444Z,45952
2017-07-24T13:58:41.414Z,49344
2017-07-24T13:59:51.700Z,54464
2017-07-24T14:01:01.362Z,61984
2017-07-24T14:02:11.021Z,46848
2017-07-24T14:03:21.305Z,49408
2017-07-24T14:04:31.593Z,44896
2017-07-24T14:05:40.936Z,42912
2017-07-24T14:06:51.220Z,51808
2017-07-24T14:08:01.506Z,67776
2017-07-24T14:09:11.471Z,71776
2017-07-24T14:10:21.754Z,66592
2017-07-24T14:11:31.719Z,57632
2017-07-24T14:12:41.378Z,54336
2017-07-24T14:13:51.679Z,53632
2017-07-24T14:15:01.996Z,81856
2017-07-24T14:16:12.286Z,68768
2017-07-24T14:17:22.265Z,55520
2017-07-24T14:18:32.549Z,93760
2017-07-24T14:19:42.829Z,82368
2017-07-24T14:20:52.808Z,73024
2017-07-24T14:22:02.797Z,82176
2017-07-24T14:23:13.085Z,67008
2017-07-24T14:24:22.429Z,63232
2017-07-24T14:25:32.400Z,68800
2017-07-24T14:26:42.382Z,71840
2017-07-24T14:27:52.680Z,61056
2017-07-24T14:29:02.651Z,45344
2017-07-24T14:30:12.625Z,49376
2017-07-24T14:31:22.601Z,42528
2017-07-24T14:32:32.894Z,39552
2017-07-24T14:33:43.181Z,38272
2017-07-24T14:34:53.463Z,34176
2017-07-24T14:36:03.446Z,30816
2017-07-24T14:37:13.425Z,30272
2017-07-24T14:38:23.717Z,29440
2017-07-24T14:39:33.059Z,29952
2017-07-24T14:40:43.035Z,31456
2017-07-24T14:41:55.337Z,28000
2017-07-24T14:43:05.623Z,29184
2017-07-24T14:44:15.913Z,31680
2017-07-24T14:45:25.887Z,33024
2017-07-24T14:46:36.178Z,36448
2017-07-24T14:47:46.464Z,38176
2017-07-24T14:48:56.434Z,33600
2017-07-24T14:50:06.744Z,31392
2017-07-24T14:51:16.405Z,26304
2017-07-24T14:52:26.374Z,28192
2017-07-24T14:53:36.343Z,29088
2017-07-24T14:54:46.312Z,26784
2017-07-24T14:55:56.290Z,32224
2017-07-24T14:57:05.945Z,30688
2017-07-24T14:58:16.240Z,36992
2017-07-24T14:59:26.826Z,37920
2017-07-24T15:00:36.480Z,40576
2017-07-24T15:01:46.767Z,46528
2017-07-24T15:02:57.050Z,61344
2017-07-24T15:04:07.022Z,67200
2017-07-24T15:05:17.311Z,76320
2017-07-24T15:06:27.280Z,85120
2017-07-24T15:07:36.940Z,79872
2017-07-24T15:08:47.229Z,80416
2017-07-24T15:09:57.199Z,82368
2017-07-24T15:11:07.170Z,78656
2017-07-24T15:12:17.456Z,30976
2017-07-24T15:13:27.740Z,75840
2017-07-24T15:14:37.718Z,72832
2017-07-24T15:15:47.373Z,33696
2017-07-24T15:16:57.664Z,32288
2017-07-24T15:18:07.943Z,40160
2017-07-24T15:19:18.226Z,33280
2017-07-24T15:20:28.219Z,38048
2017-07-24T15:21:38.502Z,20288
2017-07-24T15:22:50.942Z,19360
2017-07-24T15:24:01.226Z,18624
2017-07-24T15:25:11.510Z,20896
2017-07-24T15:26:21.478Z,17984
2017-07-24T15:27:31.766Z,17184
2017-07-24T15:28:42.050Z,16896
2017-07-24T15:29:52.015Z,16992
2017-07-24T15:31:02.299Z,16800
2017-07-24T15:32:11.965Z,17408
2017-07-24T15:33:22.253Z,18176
2017-07-24T15:34:32.531Z,19488
2017-07-24T15:35:42.188Z,20192
2017-07-24T15:36:52.153Z,19872